Tenerife Norte / Los Rodeos GCXO

Aviation Digital Data Service (ADDS)

Output produced by METARs form (1211 UTC 14 August 2017)
METAR text: GCXO 141200Z VRB03KT 9999 FEW007 25/16 Q1019 NOSIG
Conditions at: GCXO (TENERIFE/LOS ROD, ES) observed 1200 UTC 14 August 2017
Temperature: 25.0°C (77°F)
Dewpoint: 16.0°C (61°F) [RH = 57%]
Pressure (altimeter): 30.09 inches Hg (1019.0 mb)
Winds: variable direction winds at 3 MPH (3 knots; 1.6 m/s)
Visibility: 6 or more miles (10+ km)
Ceiling: at least 12,000 feet AGL
Clouds: few clouds at 700 feet AGL
Weather: no significant weather observed at this time

Forecast for: GCXO (TENERIFE/LOS ROD, ES)
Text: TAF GCXO 140800Z 1409/1509 29010KT 9999 SCT015 TX27/1413Z TN20/1505Z
Forecast period: 0900 UTC 14 August 2017 to 0900 UTC 15 August 2017
Forecast type: FROM: standard forecast or significant change
Winds: from the WNW (290 degrees) at 12 MPH (10 knots; 5.2 m/s)
Visibility: 6 or more miles (10+ km)
Clouds: scattered clouds at 1500 feet AGL
Weather: no significant weather forecast for this period

Tenerife Sur / Aeropuerto GCTS

Aviation Digital Data Service (ADDS)

Output produced by METARs form (1211 UTC 14 August 2017)
METAR text: GCTS 141200Z 22009KT 180V260 9999 FEW030 26/18 Q1017 NOSIG
Conditions at: GCTS (TENERIFE SUR/REI, ES) observed 1200 UTC 14 August 2017
Temperature: 26.0°C (79°F)
Dewpoint: 18.0°C (64°F) [RH = 61%]
Pressure (altimeter): 30.03 inches Hg (1017.0 mb)
Winds: from the SW (220 degrees) at 10 MPH (9 knots; 4.7 m/s)
Visibility: 6 or more miles (10+ km)
Ceiling: at least 12,000 feet AGL
Clouds: few clouds at 3000 feet AGL
Weather: no significant weather observed at this time

Forecast for: GCTS (TENERIFE SUR/REI, ES)
Text: TAF GCTS 140800Z 1409/1509 30007KT CAVOK TX29/1413Z TN20/1505Z
Forecast period: 0900 UTC 14 August 2017 to 0900 UTC 15 August 2017
Forecast type: FROM: standard forecast or significant change
Winds: from the WNW (300 degrees) at 8 MPH (7 knots; 3.6 m/s)
Visibility: 6 or more miles (10+ km)
Clouds: not forecast
Weather: no significant weather forecast for this period
Text: BECMG 1409/1411 16010KT
Forecast period: 0900 UTC 14 August 2017 to 0900 UTC 15 August 2017
Forecast type: BECOMING: Conditions expected to become as follows by 1100 UTC 14 August 2017
Winds: from the SSE (160 degrees) at 12 MPH (10 knots; 5.2 m/s)
Visibility: 6 or more miles (10+ km)
Weather: no significant weather forecast for this period

La Palma / Aeropuerto GCLA

Aviation Digital Data Service (ADDS)

Output produced by METARs form (1211 UTC 14 August 2017)
METAR text: GCLA 141200Z 07004KT 040V100 9999 BKN032 26/17 Q1017
Conditions at: GCLA (LA PALMA AIRPORT, ES) observed 1200 UTC 14 August 2017
Temperature: 26.0°C (79°F)
Dewpoint: 17.0°C (63°F) [RH = 58%]
Pressure (altimeter): 30.03 inches Hg (1017.0 mb)
Winds: from the ENE (70 degrees) at 5 MPH (4 knots; 2.1 m/s)
Visibility: 6 or more miles (10+ km)
Ceiling: 3200 feet AGL
Clouds: broken clouds at 3200 feet AGL
Weather: no significant weather observed at this time

Forecast for: GCLA (LA PALMA AIRPORT, ES)
Text: TAF GCLA 140800Z 1409/1509 04010KT CAVOK TX27/1413Z TN22/1505Z
Forecast period: 0900 UTC 14 August 2017 to 0900 UTC 15 August 2017
Forecast type: FROM: standard forecast or significant change
Winds: from the NE (40 degrees) at 12 MPH (10 knots; 5.2 m/s)
Visibility: 6 or more miles (10+ km)
Clouds: not forecast
Weather: no significant weather forecast for this period

Hierro / Aeropuerto GCHI

Aviation Digital Data Service (ADDS)

Output produced by METARs form (1211 UTC 14 August 2017)
METAR text: GCHI 141200Z 01012KT 340V040 9999 FEW025 26/18 Q1017
Conditions at: GCHI (HIERRO AIRPORT , ES) observed 1200 UTC 14 August 2017
Temperature: 26.0°C (79°F)
Dewpoint: 18.0°C (64°F) [RH = 61%]
Pressure (altimeter): 30.03 inches Hg (1017.0 mb)
Winds: from the N (10 degrees) at 14 MPH (12 knots; 6.2 m/s)
Visibility: 6 or more miles (10+ km)
Ceiling: at least 12,000 feet AGL
Clouds: few clouds at 2500 feet AGL
Weather: no significant weather observed at this time

Forecast for: GCHI (HIERRO AIRPORT , ES)
Text: TAF GCHI 140800Z 1409/1509 34013KT 9999 FEW015 TX26/1413Z TN22/1505Z
Forecast period: 0900 UTC 14 August 2017 to 0900 UTC 15 August 2017
Forecast type: FROM: standard forecast or significant change
Winds: from the NNW (340 degrees) at 15 MPH (13 knots; 6.8 m/s)
Visibility: 6 or more miles (10+ km)
Clouds: few clouds at 1500 feet AGL
Weather: no significant weather forecast for this period

Gran Canaria / Aeropuerto GCLP

Aviation Digital Data Service (ADDS)

Output produced by METARs form (1211 UTC 14 August 2017)
METAR text: GCLP 141200Z 03016KT CAVOK 27/18 Q1016 NOSIG
Conditions at: GCLP (LAS PALMAS/GANDO, ES) observed 1200 UTC 14 August 2017
Temperature: 27.0°C (81°F)
Dewpoint: 18.0°C (64°F) [RH = 58%]
Pressure (altimeter): 30.00 inches Hg (1016.0 mb)
Winds: from the NNE (30 degrees) at 18 MPH (16 knots; 8.3 m/s)
Visibility: 6 or more miles (10+ km)
Ceiling: ceiling and visibility are OK
Clouds: unknown
Weather: no significant weather observed at this time

Forecast for: GCLP (LAS PALMAS/GANDO, ES)
Text: TAF GCLP 140800Z 1409/1509 31007KT CAVOK TX27/1413Z TN20/1505Z
Forecast period: 0900 UTC 14 August 2017 to 0900 UTC 15 August 2017
Forecast type: FROM: standard forecast or significant change
Winds: from the NW (310 degrees) at 8 MPH (7 knots; 3.6 m/s)
Visibility: 6 or more miles (10+ km)
Clouds: not forecast
Weather: no significant weather forecast for this period
Text: BECMG 1409/1411 16010KT
Forecast period: 0900 UTC 14 August 2017 to 0900 UTC 15 August 2017
Forecast type: BECOMING: Conditions expected to become as follows by 1100 UTC 14 August 2017
Winds: from the SSE (160 degrees) at 12 MPH (10 knots; 5.2 m/s)
Visibility: 6 or more miles (10+ km)
Weather: no significant weather forecast for this period

Fuerteventura / Aeropuerto GCFV

Aviation Digital Data Service (ADDS)

Output produced by METARs form (1211 UTC 14 August 2017)
METAR text: GCFV 141200Z 05012KT CAVOK 27/21 Q1015
Conditions at: GCFV (FUERTEVENTURA AR, ES) observed 1200 UTC 14 August 2017
Temperature: 27.0°C (81°F)
Dewpoint: 21.0°C (70°F) [RH = 70%]
Pressure (altimeter): 29.97 inches Hg (1015.0 mb)
Winds: from the NE (50 degrees) at 14 MPH (12 knots; 6.2 m/s)
Visibility: 6 or more miles (10+ km)
Ceiling: ceiling and visibility are OK
Clouds: unknown
Weather: no significant weather observed at this time

Forecast for: GCFV (FUERTEVENTURA AR, ES)
Text: TAF GCFV 140800Z 1409/1509 31008KT 9999 FEW015 TX27/1413Z TN22/1505Z
Forecast period: 0900 UTC 14 August 2017 to 0900 UTC 15 August 2017
Forecast type: FROM: standard forecast or significant change
Winds: from the NW (310 degrees) at 9 MPH (8 knots; 4.2 m/s)
Visibility: 6 or more miles (10+ km)
Clouds: few clouds at 1500 feet AGL
Weather: no significant weather forecast for this period
Text: BECMG 1409/1411 09010KT
Forecast period: 0900 UTC 14 August 2017 to 0900 UTC 15 August 2017
Forecast type: BECOMING: Conditions expected to become as follows by 1100 UTC 14 August 2017
Winds: from the E (90 degrees) at 12 MPH (10 knots; 5.2 m/s)
Visibility: 6 or more miles (10+ km)
Clouds: few clouds at 1500 feet AGL
Weather: no significant weather forecast for this period

Lanzarote / Aeropuerto GCRR

Aviation Digital Data Service (ADDS)

Output produced by METARs form (1211 UTC 14 August 2017)
METAR text: GCRR 141200Z 12007KT CAVOK 25/21 Q1016
Conditions at: GCRR (ARRECIFE/LANZARO, ES) observed 1200 UTC 14 August 2017
Temperature: 25.0°C (77°F)
Dewpoint: 21.0°C (70°F) [RH = 79%]
Pressure (altimeter): 30.00 inches Hg (1016.0 mb)
Winds: from the ESE (120 degrees) at 8 MPH (7 knots; 3.6 m/s)
Visibility: 6 or more miles (10+ km)
Ceiling: ceiling and visibility are OK
Clouds: unknown
Weather: no significant weather observed at this time

Forecast for: GCRR (ARRECIFE/LANZARO, ES)
Text: TAF GCRR 140800Z 1409/1509 15006KT 9999 FEW020 TX31/1413Z TN21/1505Z
Forecast period: 0900 UTC 14 August 2017 to 0900 UTC 15 August 2017
Forecast type: FROM: standard forecast or significant change
Winds: from the SSE (150 degrees) at 7 MPH (6 knots; 3.1 m/s)
Visibility: 6 or more miles (10+ km)
Clouds: few clouds at 2000 feet AGL
Weather: no significant weather forecast for this period